CSCL Long Beach — VRCZ7 — position and weather

sailwx.info

Track history (hours):
 
Tides and Currents Weather Stations Pressure Air Temp Water Temp Dewpoint Dewpoint Depression Visibility Wind Speed Wind Dir Waves Ship Positions

CSCL Long Beach

Last reported at 2016-Apr-19 15:32 UTC. Time now 2016-Apr-30 07:14 UTC.
Position N 24°10' E 118°55'.
Warning: this ship's position is 10 days out of date.

Length 336.7 m; beam 45.6 m; draft 15 m.

Type: Ship. MMSI: 477883900.

Date/timePositionNaut miles runAvg speedWind from/ knotsBaromVisibWave heightAir tempDewpointWater temp
2016-Apr-19 15:32N 24°10' E 118°55'26915.4
2016-Apr-18 22:03N 22°06' E 114°35'1315.1
2016-Apr-18 21:10N 22°06' E 114°21'1710.6
2016-Apr-18 19:33N 22°16' E 114°06'4 3.3
2016-Apr-18 18:30N 22°20' E 114°08'0 0.0
2016-Apr-18 17:33N 22°20' E 114°08'0 0.0
2016-Apr-18 16:33N 22°20' E 114°08'0 0.0
2016-Apr-18 15:27N 22°20' E 114°08'0 0.0
2016-Apr-18 14:30N 22°20' E 114°08'0 0.0
2016-Apr-18 13:30N 22°20' E 114°08'0 0.0
2016-Apr-18 12:30N 22°20' E 114°08'0 0.0
2016-Apr-18 11:30N 22°20' E 114°08'0 0.0
2016-Apr-18 10:33N 22°20' E 114°08'0 0.0
2016-Apr-18 09:33N 22°20' E 114°08'0 0.0
2016-Apr-18 08:27N 22°20' E 114°08'0 0.0
2016-Apr-18 07:24N 22°20' E 114°08'0 0.0
2016-Apr-18 06:27N 22°20' E 114°08'0 0.0
2016-Apr-18 05:33N 22°20' E 114°08'0 0.0
2016-Apr-18 04:33N 22°20' E 114°08'0 0.0
2016-Apr-18 03:30N 22°20' E 114°08'0 0.0
2016-Apr-18 02:24N 22°20' E 114°08'0 0.0
2016-Apr-18 01:33N 22°20' E 114°08'0 0.0
2016-Apr-18 00:24N 22°20' E 114°08'0 0.0
2016-Apr-17 23:30N 22°20' E 114°08'0 0.0
2016-Apr-17 22:33N 22°20' E 114°08'3 3.1
2016-Apr-17 21:33N 22°17' E 114°06'10 9.5
2016-Apr-17 20:31N 22°09' E 114°13'1111.8
2016-Apr-17 19:33N 22°07' E 114°25'5 4.2
2016-Apr-17 18:17N 22°05' E 114°30'0 0.1
2016-Apr-17 17:29N 22°05' E 114°30'0 0.0
2016-Apr-17 12:05N 22°05' E 114°30'10 1.8
2016-Apr-17 06:28N 22°07' E 114°19'2110.9
2016-Apr-17 04:33N 22°21' E 114°03'1 0.0
2016-Apr-16 06:06N 22°21' E 114°03'510.1
2016-Apr-16 05:34N 22°17' E 114°06'1110.6
2016-Apr-16 04:31N 22°08' E 114°14'1111.4
2016-Apr-16 03:33N 22°07' E 114°26'223 9.7
2016-Apr-15 04:32N 23°47' E 118°02'1414.2
2016-Apr-15 03:32N 23°58' E 118°12'1313.3
2016-Apr-15 02:33N 24°10' E 118°17'1312.9
2016-Apr-15 01:33N 24°21' E 118°10'1110.5
2016-Apr-15 00:32N 24°27' E 118°00'0 0.1
2016-Apr-14 23:26N 24°27' E 118°00'0 0.0
2016-Apr-14 22:26N 24°27' E 118°00'0 0.1
2016-Apr-14 21:32N 24°27' E 118°00'0 0.0
2016-Apr-14 20:32N 24°27' E 118°00'0 0.0
2016-Apr-14 19:26N 24°27' E 118°00'0 0.1
2016-Apr-14 18:26N 24°27' E 118°00'0 0.1
2016-Apr-14 17:32N 24°27' E 118°00'0 0.0
2016-Apr-14 16:32N 24°27' E 118°00'0 0.0
2016-Apr-14 15:32N 24°27' E 118°00'0 0.0
2016-Apr-14 14:29N 24°27' E 118°00'0 0.0
2016-Apr-14 13:26N 24°27' E 118°00'0 0.0
2016-Apr-14 12:32N 24°27' E 118°00'0 0.3
2016-Apr-14 11:33N 24°27' E 118°01'9 9.0
2016-Apr-14 10:33N 24°22' E 118°09'9 9.1
2016-Apr-14 09:33N 24°15' E 118°15'7 3.3
2016-Apr-14 07:33N 24°11' E 118°22'0 0.0
2016-Apr-14 04:28N 24°11' E 118°22'1 1.0
2016-Apr-14 03:31N 24°11' E 118°23'11 9.9
2016-Apr-14 02:24N 24°15' E 118°34'1212.9
2016-Apr-14 01:29N 24°19' E 118°46'1212.7
2016-Apr-14 00:32N 24°25' E 118°58'4 4.0
2016-Apr-13 23:31N 24°27' E 119°02'1413.8
2016-Apr-13 22:33N 24°34' E 119°15'40012.0
2016-Apr-12 13:16N 30°22' E 122°56'1113.5
2016-Apr-12 12:29N 30°28' E 122°46'1714.5
2016-Apr-12 11:20N 30°31' E 122°26'1214.3
2016-Apr-12 10:28N 30°33' E 122°13'9 4.0
2016-Apr-12 08:20N 30°37' E 122°04'0 0.0
2016-Apr-12 03:29N 30°37' E 122°04'0 0.0
2016-Apr-12 00:08N 30°37' E 122°04'0 0.0
2016-Apr-11 23:29N 30°37' E 122°04'2 2.0
2016-Apr-11 22:31N 30°36' E 122°05'11 8.8
2016-Apr-11 21:17N 30°33' E 122°18'8 8.9
2016-Apr-11 20:22N 30°32' E 122°27'810.1
2016-Apr-11 19:34N 30°30' E 122°36'5 0.8
2016-Apr-11 13:33N 30°26' E 122°38'0 0.1
2016-Apr-11 12:33N 30°26' E 122°38'0 0.1
2016-Apr-11 11:33N 30°26' E 122°38'0 0.1
2016-Apr-11 10:33N 30°26' E 122°38'0 0.0
2016-Apr-11 08:30N 30°26' E 122°38'0 0.1
2016-Apr-11 07:33N 30°26' E 122°38'0 0.0
2016-Apr-10 12:21N 30°26' E 122°38'0 0.0
2016-Apr-10 09:30N 30°26' E 122°38'0 0.0
2016-Apr-10 08:24N 30°26' E 122°38'0 0.0
2016-Apr-10 00:24N 30°26' E 122°38'0 0.1
2016-Apr-09 23:33N 30°26' E 122°38'0 0.0
2016-Apr-09 22:30N 30°26' E 122°38'  
Track history (hours):
 
Tides and Currents Weather Stations Pressure Air Temp Water Temp Dewpoint Dewpoint Depression Visibility Wind Speed Wind Dir Waves Ship Positions

CSCL Long Beach

Last reported at 2016-Apr-19 15:32 UTC. Time now 2016-Apr-30 07:14 UTC.
Position N 24°10' E 118°55'.
Warning: this ship's position is 10 days out of date.

Length 336.7 m; beam 45.6 m; draft 15 m.

Type: Ship. MMSI: 477883900.

Date/timePositionNaut miles runAvg speedWind from/ knotsBaromVisibWave heightAir tempDewpointWater temp
2016-Apr-19 15:32N 24°10' E 118°55'26915.4
2016-Apr-18 22:03N 22°06' E 114°35'1315.1
2016-Apr-18 21:10N 22°06' E 114°21'1710.6
2016-Apr-18 19:33N 22°16' E 114°06'4 3.3
2016-Apr-18 18:30N 22°20' E 114°08'0 0.0
2016-Apr-18 17:33N 22°20' E 114°08'0 0.0
2016-Apr-18 16:33N 22°20' E 114°08'0 0.0
2016-Apr-18 15:27N 22°20' E 114°08'0 0.0
2016-Apr-18 14:30N 22°20' E 114°08'0 0.0
2016-Apr-18 13:30N 22°20' E 114°08'0 0.0
2016-Apr-18 12:30N 22°20' E 114°08'0 0.0
2016-Apr-18 11:30N 22°20' E 114°08'0 0.0
2016-Apr-18 10:33N 22°20' E 114°08'0 0.0
2016-Apr-18 09:33N 22°20' E 114°08'0 0.0
2016-Apr-18 08:27N 22°20' E 114°08'0 0.0
2016-Apr-18 07:24N 22°20' E 114°08'0 0.0
2016-Apr-18 06:27N 22°20' E 114°08'0 0.0
2016-Apr-18 05:33N 22°20' E 114°08'0 0.0
2016-Apr-18 04:33N 22°20' E 114°08'0 0.0
2016-Apr-18 03:30N 22°20' E 114°08'0 0.0
2016-Apr-18 02:24N 22°20' E 114°08'0 0.0
2016-Apr-18 01:33N 22°20' E 114°08'0 0.0
2016-Apr-18 00:24N 22°20' E 114°08'0 0.0
2016-Apr-17 23:30N 22°20' E 114°08'0 0.0
2016-Apr-17 22:33N 22°20' E 114°08'3 3.1
2016-Apr-17 21:33N 22°17' E 114°06'10 9.5
2016-Apr-17 20:31N 22°09' E 114°13'1111.8
2016-Apr-17 19:33N 22°07' E 114°25'5 4.2
2016-Apr-17 18:17N 22°05' E 114°30'0 0.1
2016-Apr-17 17:29N 22°05' E 114°30'0 0.0
2016-Apr-17 12:05N 22°05' E 114°30'10 1.8
2016-Apr-17 06:28N 22°07' E 114°19'2110.9
2016-Apr-17 04:33N 22°21' E 114°03'1 0.0
2016-Apr-16 06:06N 22°21' E 114°03'510.1
2016-Apr-16 05:34N 22°17' E 114°06'1110.6
2016-Apr-16 04:31N 22°08' E 114°14'1111.4
2016-Apr-16 03:33N 22°07' E 114°26'223 9.7
2016-Apr-15 04:32N 23°47' E 118°02'1414.2
2016-Apr-15 03:32N 23°58' E 118°12'1313.3
2016-Apr-15 02:33N 24°10' E 118°17'1312.9
2016-Apr-15 01:33N 24°21' E 118°10'1110.5
2016-Apr-15 00:32N 24°27' E 118°00'0 0.1
2016-Apr-14 23:26N 24°27' E 118°00'0 0.0
2016-Apr-14 22:26N 24°27' E 118°00'0 0.1
2016-Apr-14 21:32N 24°27' E 118°00'0 0.0
2016-Apr-14 20:32N 24°27' E 118°00'0 0.0
2016-Apr-14 19:26N 24°27' E 118°00'0 0.1
2016-Apr-14 18:26N 24°27' E 118°00'0 0.1
2016-Apr-14 17:32N 24°27' E 118°00'0 0.0
2016-Apr-14 16:32N 24°27' E 118°00'0 0.0
2016-Apr-14 15:32N 24°27' E 118°00'0 0.0
2016-Apr-14 14:29N 24°27' E 118°00'0 0.0
2016-Apr-14 13:26N 24°27' E 118°00'0 0.0
2016-Apr-14 12:32N 24°27' E 118°00'0 0.3
2016-Apr-14 11:33N 24°27' E 118°01'9 9.0
2016-Apr-14 10:33N 24°22' E 118°09'9 9.1
2016-Apr-14 09:33N 24°15' E 118°15'7 3.3
2016-Apr-14 07:33N 24°11' E 118°22'0 0.0
2016-Apr-14 04:28N 24°11' E 118°22'1 1.0
2016-Apr-14 03:31N 24°11' E 118°23'11 9.9
2016-Apr-14 02:24N 24°15' E 118°34'1212.9
2016-Apr-14 01:29N 24°19' E 118°46'1212.7
2016-Apr-14 00:32N 24°25' E 118°58'4 4.0
2016-Apr-13 23:31N 24°27' E 119°02'1413.8
2016-Apr-13 22:33N 24°34' E 119°15'40012.0
2016-Apr-12 13:16N 30°22' E 122°56'1113.5
2016-Apr-12 12:29N 30°28' E 122°46'1714.5
2016-Apr-12 11:20N 30°31' E 122°26'1214.3
2016-Apr-12 10:28N 30°33' E 122°13'9 4.0
2016-Apr-12 08:20N 30°37' E 122°04'0 0.0
2016-Apr-12 03:29N 30°37' E 122°04'0 0.0
2016-Apr-12 00:08N 30°37' E 122°04'0 0.0
2016-Apr-11 23:29N 30°37' E 122°04'2 2.0
2016-Apr-11 22:31N 30°36' E 122°05'11 8.8
2016-Apr-11 21:17N 30°33' E 122°18'8 8.9
2016-Apr-11 20:22N 30°32' E 122°27'810.1
2016-Apr-11 19:34N 30°30' E 122°36'5 0.8
2016-Apr-11 13:33N 30°26' E 122°38'0 0.1
2016-Apr-11 12:33N 30°26' E 122°38'0 0.1
2016-Apr-11 11:33N 30°26' E 122°38'0 0.1
2016-Apr-11 10:33N 30°26' E 122°38'0 0.0
2016-Apr-11 08:30N 30°26' E 122°38'0 0.1
2016-Apr-11 07:33N 30°26' E 122°38'0 0.0
2016-Apr-10 12:21N 30°26' E 122°38'0 0.0
2016-Apr-10 09:30N 30°26' E 122°38'0 0.0
2016-Apr-10 08:24N 30°26' E 122°38'0 0.0
2016-Apr-10 00:24N 30°26' E 122°38'0 0.1
2016-Apr-09 23:33N 30°26' E 122°38'0 0.0
2016-Apr-09 22:30N 30°26' E 122°38'  

Dump ship's entire track history